sensor_id;sensor_type;location;lat;lon;timestamp;P1;durP1;ratioP1;P2;durP2;ratioP2
43311;SDS011;30041;48.300;16.352;2022-09-27T00:01:30;1.42;;;1.17;;
43311;SDS011;30041;48.300;16.352;2022-09-27T00:03:56;1.65;;;1.20;;
43311;SDS011;30041;48.300;16.352;2022-09-27T00:06:23;1.80;;;1.17;;
43311;SDS011;30041;48.300;16.352;2022-09-27T00:08:53;1.98;;;1.10;;
43311;SDS011;30041;48.300;16.352;2022-09-27T00:11:27;1.30;;;0.95;;
43311;SDS011;30041;48.300;16.352;2022-09-27T00:13:54;1.45;;;1.08;;
43311;SDS011;30041;48.300;16.352;2022-09-27T00:16:21;1.10;;;0.90;;
43311;SDS011;30041;48.300;16.352;2022-09-27T00:18:48;1.00;;;0.90;;
43311;SDS011;30041;48.300;16.352;2022-09-27T00:21:14;1.45;;;1.00;;
43311;SDS011;30041;48.300;16.352;2022-09-27T00:23:39;1.45;;;1.20;;
43311;SDS011;30041;48.300;16.352;2022-09-27T00:26:05;1.45;;;1.00;;
43311;SDS011;30041;48.300;16.352;2022-09-27T00:28:32;1.92;;;1.17;;
43311;SDS011;30041;48.300;16.352;2022-09-27T00:30:58;1.10;;;0.88;;
43311;SDS011;30041;48.300;16.352;2022-09-27T00:33:24;1.42;;;0.98;;
43311;SDS011;30041;48.300;16.352;2022-09-27T00:35:51;0.98;;;0.80;;
43311;SDS011;30041;48.300;16.352;2022-09-27T00:38:16;1.10;;;1.00;;
43311;SDS011;30041;48.300;16.352;2022-09-27T00:40:42;1.70;;;1.00;;
43311;SDS011;30041;48.300;16.352;2022-09-27T00:46:08;0.85;;;0.80;;
43311;SDS011;30041;48.300;16.352;2022-09-27T00:48:35;1.05;;;0.95;;
43311;SDS011;30041;48.300;16.352;2022-09-27T00:51:02;1.08;;;0.93;;
43311;SDS011;30041;48.300;16.352;2022-09-27T00:53:35;1.33;;;0.95;;
43311;SDS011;30041;48.300;16.352;2022-09-27T00:56:13;1.00;;;0.85;;
43311;SDS011;30041;48.300;16.352;2022-09-27T00:58:45;0.90;;;0.75;;
43311;SDS011;30041;48.300;16.352;2022-09-27T01:01:15;1.73;;;1.10;;
43311;SDS011;30041;48.300;16.352;2022-09-27T01:03:43;0.98;;;0.88;;
43311;SDS011;30041;48.300;16.352;2022-09-27T01:06:13;1.05;;;0.75;;
43311;SDS011;30041;48.300;16.352;2022-09-27T01:08:40;1.00;;;0.90;;
43311;SDS011;30041;48.300;16.352;2022-09-27T01:16:35;2.05;;;0.90;;
43311;SDS011;30041;48.300;16.352;2022-09-27T01:21:54;1.50;;;0.80;;
43311;SDS011;30041;48.300;16.352;2022-09-27T01:24:42;0.82;;;0.73;;
43311;SDS011;30041;48.300;16.352;2022-09-27T01:30:20;1.08;;;0.80;;
43311;SDS011;30041;48.300;16.352;2022-09-27T01:43:28;1.23;;;0.80;;
43311;SDS011;30041;48.300;16.352;2022-09-27T01:45:59;0.70;;;0.70;;
43311;SDS011;30041;48.300;16.352;2022-09-27T01:48:34;1.10;;;0.82;;
43311;SDS011;30041;48.300;16.352;2022-09-27T01:51:10;0.60;;;0.60;;
43311;SDS011;30041;48.300;16.352;2022-09-27T01:53:45;0.88;;;0.60;;
43311;SDS011;30041;48.300;16.352;2022-09-27T01:56:21;0.82;;;0.60;;
43311;SDS011;30041;48.300;16.352;2022-09-27T02:01:19;1.00;;;0.68;;
43311;SDS011;30041;48.300;16.352;2022-09-27T02:03:49;0.82;;;0.68;;
43311;SDS011;30041;48.300;16.352;2022-09-27T02:06:30;0.75;;;0.70;;
43311;SDS011;30041;48.300;16.352;2022-09-27T02:11:44;2.05;;;0.70;;
43311;SDS011;30041;48.300;16.352;2022-09-27T02:14:22;0.70;;;0.70;;
43311;SDS011;30041;48.300;16.352;2022-09-27T02:16:59;0.85;;;0.70;;
43311;SDS011;30041;48.300;16.352;2022-09-27T02:22:16;0.57;;;0.55;;
43311;SDS011;30041;48.300;16.352;2022-09-27T02:24:50;1.02;;;0.73;;
43311;SDS011;30041;48.300;16.352;2022-09-27T02:27:28;0.63;;;0.52;;
43311;SDS011;30041;48.300;16.352;2022-09-27T02:30:05;0.88;;;0.63;;
43311;SDS011;30041;48.300;16.352;2022-09-27T02:32:34;0.73;;;0.43;;
43311;SDS011;30041;48.300;16.352;2022-09-27T02:35:01;0.63;;;0.57;;
43311;SDS011;30041;48.300;16.352;2022-09-27T02:37:31;0.60;;;0.60;;
43311;SDS011;30041;48.300;16.352;2022-09-27T02:39:57;0.60;;;0.60;;
43311;SDS011;30041;48.300;16.352;2022-09-27T02:42:23;0.65;;;0.65;;
43311;SDS011;30041;48.300;16.352;2022-09-27T02:44:50;0.70;;;0.60;;
43311;SDS011;30041;48.300;16.352;2022-09-27T02:47:26;0.80;;;0.70;;
43311;SDS011;30041;48.300;16.352;2022-09-27T02:53:15;0.50;;;0.50;;
43311;SDS011;30041;48.300;16.352;2022-09-27T02:55:50;0.60;;;0.50;;
43311;SDS011;30041;48.300;16.352;2022-09-27T03:01:35;0.60;;;0.60;;
43311;SDS011;30041;48.300;16.352;2022-09-27T03:04:25;0.57;;;0.50;;
43311;SDS011;30041;48.300;16.352;2022-09-27T03:06:59;0.55;;;0.50;;
43311;SDS011;30041;48.300;16.352;2022-09-27T03:09:38;0.85;;;0.60;;
43311;SDS011;30041;48.300;16.352;2022-09-27T03:12:09;0.70;;;0.60;;
43311;SDS011;30041;48.300;16.352;2022-09-27T03:14:35;0.68;;;0.60;;
43311;SDS011;30041;48.300;16.352;2022-09-27T03:17:01;0.93;;;0.52;;
43311;SDS011;30041;48.300;16.352;2022-09-27T03:19:26;0.57;;;0.43;;
43311;SDS011;30041;48.300;16.352;2022-09-27T03:21:52;0.50;;;0.50;;
43311;SDS011;30041;48.300;16.352;2022-09-27T03:24:18;0.63;;;0.60;;
43311;SDS011;30041;48.300;16.352;2022-09-27T03:26:43;0.50;;;0.50;;
43311;SDS011;30041;48.300;16.352;2022-09-27T03:29:09;0.40;;;0.38;;
43311;SDS011;30041;48.300;16.352;2022-09-27T03:31:34;0.47;;;0.47;;
43311;SDS011;30041;48.300;16.352;2022-09-27T03:34:00;0.35;;;0.35;;
43311;SDS011;30041;48.300;16.352;2022-09-27T03:36:25;1.17;;;0.77;;
43311;SDS011;30041;48.300;16.352;2022-09-27T03:38:51;0.50;;;0.45;;
43311;SDS011;30041;48.300;16.352;2022-09-27T03:41:16;0.75;;;0.50;;
43311;SDS011;30041;48.300;16.352;2022-09-27T03:43:42;0.40;;;0.40;;
43311;SDS011;30041;48.300;16.352;2022-09-27T03:46:07;0.57;;;0.47;;
43311;SDS011;30041;48.300;16.352;2022-09-27T03:48:33;0.40;;;0.40;;
43311;SDS011;30041;48.300;16.352;2022-09-27T03:50:58;0.38;;;0.38;;
43311;SDS011;30041;48.300;16.352;2022-09-27T03:53:24;0.63;;;0.50;;
43311;SDS011;30041;48.300;16.352;2022-09-27T03:55:49;0.40;;;0.40;;
43311;SDS011;30041;48.300;16.352;2022-09-27T03:58:15;0.43;;;0.40;;
43311;SDS011;30041;48.300;16.352;2022-09-27T04:00:40;1.13;;;0.50;;
43311;SDS011;30041;48.300;16.352;2022-09-27T04:03:06;0.57;;;0.40;;
43311;SDS011;30041;48.300;16.352;2022-09-27T04:05:31;0.43;;;0.40;;
43311;SDS011;30041;48.300;16.352;2022-09-27T04:07:57;0.50;;;0.40;;
43311;SDS011;30041;48.300;16.352;2022-09-27T04:10:23;0.60;;;0.40;;
43311;SDS011;30041;48.300;16.352;2022-09-27T04:12:49;0.57;;;0.47;;
43311;SDS011;30041;48.300;16.352;2022-09-27T04:15:14;0.40;;;0.40;;
43311;SDS011;30041;48.300;16.352;2022-09-27T04:17:40;0.38;;;0.38;;
43311;SDS011;30041;48.300;16.352;2022-09-27T04:20:07;0.45;;;0.40;;
43311;SDS011;30041;48.300;16.352;2022-09-27T04:22:33;0.35;;;0.30;;
43311;SDS011;30041;48.300;16.352;2022-09-27T04:24:58;0.38;;;0.35;;
43311;SDS011;30041;48.300;16.352;2022-09-27T04:27:24;0.40;;;0.40;;
43311;SDS011;30041;48.300;16.352;2022-09-27T04:29:49;0.43;;;0.43;;
43311;SDS011;30041;48.300;16.352;2022-09-27T04:32:14;0.30;;;0.25;;
43311;SDS011;30041;48.300;16.352;2022-09-27T04:34:40;0.40;;;0.35;;
43311;SDS011;30041;48.300;16.352;2022-09-27T04:37:06;0.75;;;0.47;;
43311;SDS011;30041;48.300;16.352;2022-09-27T04:39:31;0.60;;;0.50;;
43311;SDS011;30041;48.300;16.352;2022-09-27T04:41:56;0.57;;;0.40;;
43311;SDS011;30041;48.300;16.352;2022-09-27T04:44:22;0.55;;;0.32;;
43311;SDS011;30041;48.300;16.352;2022-09-27T04:46:47;0.32;;;0.32;;
43311;SDS011;30041;48.300;16.352;2022-09-27T04:49:13;0.47;;;0.38;;
43311;SDS011;30041;48.300;16.352;2022-09-27T04:51:38;0.30;;;0.30;;
43311;SDS011;30041;48.300;16.352;2022-09-27T04:54:04;0.40;;;0.40;;
43311;SDS011;30041;48.300;16.352;2022-09-27T04:56:29;0.47;;;0.47;;
43311;SDS011;30041;48.300;16.352;2022-09-27T04:58:55;0.30;;;0.30;;
43311;SDS011;30041;48.300;16.352;2022-09-27T05:01:20;0.32;;;0.30;;
43311;SDS011;30041;48.300;16.352;2022-09-27T05:03:46;0.50;;;0.40;;
43311;SDS011;30041;48.300;16.352;2022-09-27T05:06:11;0.63;;;0.30;;
43311;SDS011;30041;48.300;16.352;2022-09-27T05:08:37;0.20;;;0.20;;
43311;SDS011;30041;48.300;16.352;2022-09-27T05:11:02;0.20;;;0.20;;
43311;SDS011;30041;48.300;16.352;2022-09-27T05:13:28;0.20;;;0.20;;
43311;SDS011;30041;48.300;16.352;2022-09-27T05:15:53;0.20;;;0.20;;
43311;SDS011;30041;48.300;16.352;2022-09-27T05:18:19;0.20;;;0.20;;
43311;SDS011;30041;48.300;16.352;2022-09-27T05:20:45;0.10;;;0.10;;
43311;SDS011;30041;48.300;16.352;2022-09-27T05:23:10;0.40;;;0.22;;
43311;SDS011;30041;48.300;16.352;2022-09-27T05:25:36;0.30;;;0.20;;
43311;SDS011;30041;48.300;16.352;2022-09-27T05:28:01;0.10;;;0.10;;
43311;SDS011;30041;48.300;16.352;2022-09-27T05:30:27;0.10;;;0.10;;
43311;SDS011;30041;48.300;16.352;2022-09-27T05:32:53;0.30;;;0.20;;
43311;SDS011;30041;48.300;16.352;2022-09-27T05:35:19;2.70;;;1.35;;
43311;SDS011;30041;48.300;16.352;2022-09-27T05:37:51;5.25;;;2.15;;
43311;SDS011;30041;48.300;16.352;2022-09-27T05:40:18;4.22;;;1.73;;
43311;SDS011;30041;48.300;16.352;2022-09-27T05:42:44;2.45;;;1.40;;
43311;SDS011;30041;48.300;16.352;2022-09-27T05:45:09;3.40;;;1.60;;
43311;SDS011;30041;48.300;16.352;2022-09-27T05:47:35;4.05;;;1.58;;
43311;SDS011;30041;48.300;16.352;2022-09-27T05:50:00;5.03;;;1.83;;
43311;SDS011;30041;48.300;16.352;2022-09-27T05:52:26;4.25;;;1.90;;
43311;SDS011;30041;48.300;16.352;2022-09-27T05:54:51;4.90;;;1.60;;
43311;SDS011;30041;48.300;16.352;2022-09-27T05:57:17;8.68;;;1.58;;
43311;SDS011;30041;48.300;16.352;2022-09-27T05:59:42;4.10;;;2.00;;
43311;SDS011;30041;48.300;16.352;2022-09-27T06:02:09;6.50;;;2.00;;
43311;SDS011;30041;48.300;16.352;2022-09-27T06:04:35;5.55;;;2.05;;
43311;SDS011;30041;48.300;16.352;2022-09-27T06:07:01;7.43;;;1.80;;
43311;SDS011;30041;48.300;16.352;2022-09-27T06:09:26;6.43;;;2.10;;
43311;SDS011;30041;48.300;16.352;2022-09-27T06:11:52;4.60;;;1.77;;
43311;SDS011;30041;48.300;16.352;2022-09-27T06:14:17;4.32;;;2.30;;
43311;SDS011;30041;48.300;16.352;2022-09-27T06:16:43;5.13;;;2.13;;
43311;SDS011;30041;48.300;16.352;2022-09-27T06:19:08;4.45;;;1.80;;
43311;SDS011;30041;48.300;16.352;2022-09-27T06:21:34;4.43;;;1.95;;
43311;SDS011;30041;48.300;16.352;2022-09-27T06:23:59;7.65;;;2.33;;
43311;SDS011;30041;48.300;16.352;2022-09-27T06:26:25;15.05;;;1.98;;
43311;SDS011;30041;48.300;16.352;2022-09-27T06:28:51;3.40;;;1.85;;
43311;SDS011;30041;48.300;16.352;2022-09-27T06:31:16;4.15;;;1.90;;
43311;SDS011;30041;48.300;16.352;2022-09-27T06:33:42;3.53;;;1.98;;
43311;SDS011;30041;48.300;16.352;2022-09-27T06:36:08;3.05;;;1.75;;
43311;SDS011;30041;48.300;16.352;2022-09-27T06:38:34;4.25;;;2.10;;
43311;SDS011;30041;48.300;16.352;2022-09-27T06:41:00;2.90;;;1.95;;
43311;SDS011;30041;48.300;16.352;2022-09-27T06:43:27;3.47;;;1.70;;
43311;SDS011;30041;48.300;16.352;2022-09-27T06:45:52;5.38;;;2.00;;
43311;SDS011;30041;48.300;16.352;2022-09-27T06:48:18;2.67;;;1.65;;
43311;SDS011;30041;48.300;16.352;2022-09-27T06:50:44;2.88;;;1.60;;
43311;SDS011;30041;48.300;16.352;2022-09-27T06:53:11;4.75;;;2.08;;
43311;SDS011;30041;48.300;16.352;2022-09-27T06:55:38;2.70;;;1.70;;
43311;SDS011;30041;48.300;16.352;2022-09-27T06:58:04;3.55;;;1.80;;
43311;SDS011;30041;48.300;16.352;2022-09-27T07:00:29;5.10;;;1.65;;
43311;SDS011;30041;48.300;16.352;2022-09-27T07:02:56;3.58;;;1.90;;
43311;SDS011;30041;48.300;16.352;2022-09-27T07:05:22;5.15;;;1.90;;
43311;SDS011;30041;48.300;16.352;2022-09-27T07:07:48;6.25;;;1.88;;
43311;SDS011;30041;48.300;16.352;2022-09-27T07:10:13;5.22;;;2.05;;
43311;SDS011;30041;48.300;16.352;2022-09-27T07:12:39;6.28;;;1.80;;
43311;SDS011;30041;48.300;16.352;2022-09-27T07:15:05;4.00;;;1.90;;
43311;SDS011;30041;48.300;16.352;2022-09-27T07:17:30;3.17;;;1.80;;
43311;SDS011;30041;48.300;16.352;2022-09-27T07:19:56;4.90;;;1.80;;
43311;SDS011;30041;48.300;16.352;2022-09-27T07:22:22;3.65;;;1.90;;
43311;SDS011;30041;48.300;16.352;2022-09-27T07:24:48;2.95;;;1.75;;
43311;SDS011;30041;48.300;16.352;2022-09-27T07:27:14;5.35;;;2.10;;
43311;SDS011;30041;48.300;16.352;2022-09-27T07:29:40;3.92;;;2.00;;
43311;SDS011;30041;48.300;16.352;2022-09-27T07:32:05;12.93;;;2.47;;
43311;SDS011;30041;48.300;16.352;2022-09-27T07:34:34;7.05;;;2.20;;
43311;SDS011;30041;48.300;16.352;2022-09-27T07:37:00;4.05;;;1.88;;
43311;SDS011;30041;48.300;16.352;2022-09-27T07:39:26;4.57;;;2.20;;
43311;SDS011;30041;48.300;16.352;2022-09-27T07:41:52;4.63;;;1.80;;
43311;SDS011;30041;48.300;16.352;2022-09-27T07:44:17;8.18;;;2.00;;
43311;SDS011;30041;48.300;16.352;2022-09-27T07:46:43;8.55;;;2.40;;
43311;SDS011;30041;48.300;16.352;2022-09-27T07:49:08;5.70;;;2.08;;
43311;SDS011;30041;48.300;16.352;2022-09-27T07:51:33;4.10;;;2.10;;
43311;SDS011;30041;48.300;16.352;2022-09-27T07:53:59;6.25;;;2.03;;
43311;SDS011;30041;48.300;16.352;2022-09-27T07:56:24;4.35;;;1.70;;
43311;SDS011;30041;48.300;16.352;2022-09-27T07:58:50;6.93;;;1.63;;
43311;SDS011;30041;48.300;16.352;2022-09-27T08:01:15;5.53;;;1.90;;
43311;SDS011;30041;48.300;16.352;2022-09-27T08:03:41;3.28;;;1.80;;
43311;SDS011;30041;48.300;16.352;2022-09-27T08:06:06;3.83;;;1.60;;
43311;SDS011;30041;48.300;16.352;2022-09-27T08:08:32;3.75;;;1.75;;
43311;SDS011;30041;48.300;16.352;2022-09-27T08:10:57;4.35;;;1.83;;
43311;SDS011;30041;48.300;16.352;2022-09-27T08:13:23;3.75;;;1.60;;
43311;SDS011;30041;48.300;16.352;2022-09-27T08:15:48;4.00;;;1.90;;
43311;SDS011;30041;48.300;16.352;2022-09-27T08:18:14;3.83;;;1.70;;
43311;SDS011;30041;48.300;16.352;2022-09-27T08:20:39;3.55;;;1.80;;
43311;SDS011;30041;48.300;16.352;2022-09-27T08:23:05;4.07;;;1.80;;
43311;SDS011;30041;48.300;16.352;2022-09-27T08:25:31;4.93;;;1.67;;
43311;SDS011;30041;48.300;16.352;2022-09-27T08:27:56;3.17;;;1.70;;
43311;SDS011;30041;48.300;16.352;2022-09-27T08:30:24;4.82;;;1.83;;
43311;SDS011;30041;48.300;16.352;2022-09-27T08:32:54;3.25;;;1.77;;
43311;SDS011;30041;48.300;16.352;2022-09-27T08:35:21;2.80;;;1.50;;
43311;SDS011;30041;48.300;16.352;2022-09-27T08:37:53;5.13;;;2.00;;
43311;SDS011;30041;48.300;16.352;2022-09-27T08:40:23;2.78;;;1.67;;
43311;SDS011;30041;48.300;16.352;2022-09-27T08:42:59;3.85;;;1.80;;
43311;SDS011;30041;48.300;16.352;2022-09-27T08:48:17;14.38;;;2.28;;
43311;SDS011;30041;48.300;16.352;2022-09-27T08:50:43;4.28;;;1.65;;
43311;SDS011;30041;48.300;16.352;2022-09-27T08:53:27;8.65;;;2.20;;
43311;SDS011;30041;48.300;16.352;2022-09-27T08:56:00;9.27;;;2.00;;
43311;SDS011;30041;48.300;16.352;2022-09-27T08:58:31;7.63;;;2.00;;
43311;SDS011;30041;48.300;16.352;2022-09-27T09:00:59;5.72;;;1.90;;
43311;SDS011;30041;48.300;16.352;2022-09-27T09:03:27;5.20;;;1.80;;
43311;SDS011;30041;48.300;16.352;2022-09-27T09:06:00;3.85;;;1.70;;
43311;SDS011;30041;48.300;16.352;2022-09-27T09:08:38;4.85;;;1.70;;
43311;SDS011;30041;48.300;16.352;2022-09-27T09:14:02;3.13;;;1.42;;
43311;SDS011;30041;48.300;16.352;2022-09-27T09:16:49;9.50;;;1.70;;
43311;SDS011;30041;48.300;16.352;2022-09-27T09:19:56;3.55;;;1.80;;
43311;SDS011;30041;48.300;16.352;2022-09-27T09:25:29;7.22;;;1.70;;
43311;SDS011;30041;48.300;16.352;2022-09-27T09:28:19;5.05;;;1.60;;
43311;SDS011;30041;48.300;16.352;2022-09-27T09:30:55;3.92;;;1.40;;
43311;SDS011;30041;48.300;16.352;2022-09-27T09:33:39;4.05;;;1.38;;
43311;SDS011;30041;48.300;16.352;2022-09-27T09:36:30;3.63;;;1.23;;
43311;SDS011;30041;48.300;16.352;2022-09-27T09:39:14;3.38;;;1.30;;
43311;SDS011;30041;48.300;16.352;2022-09-27T09:42:00;2.88;;;1.40;;
43311;SDS011;30041;48.300;16.352;2022-09-27T09:44:27;2.53;;;1.40;;
43311;SDS011;30041;48.300;16.352;2022-09-27T09:46:58;3.00;;;1.23;;
43311;SDS011;30041;48.300;16.352;2022-09-27T09:50:13;2.67;;;1.20;;
43311;SDS011;30041;48.300;16.352;2022-09-27T09:52:18;4.32;;;1.27;;
43311;SDS011;30041;48.300;16.352;2022-09-27T09:54:59;5.78;;;1.40;;
43311;SDS011;30041;48.300;16.352;2022-09-27T09:57:35;3.95;;;1.30;;
43311;SDS011;30041;48.300;16.352;2022-09-27T10:00:06;4.50;;;1.30;;
43311;SDS011;30041;48.300;16.352;2022-09-27T10:02:39;2.55;;;1.38;;
43311;SDS011;30041;48.300;16.352;2022-09-27T10:05:08;4.43;;;1.38;;
43311;SDS011;30041;48.300;16.352;2022-09-27T10:07:40;4.30;;;1.17;;
43311;SDS011;30041;48.300;16.352;2022-09-27T10:10:07;2.35;;;1.10;;
43311;SDS011;30041;48.300;16.352;2022-09-27T10:12:37;2.50;;;1.42;;
43311;SDS011;30041;48.300;16.352;2022-09-27T10:15:03;4.18;;;1.10;;
43311;SDS011;30041;48.300;16.352;2022-09-27T10:17:39;4.18;;;1.35;;
43311;SDS011;30041;48.300;16.352;2022-09-27T10:20:14;4.10;;;1.30;;
43311;SDS011;30041;48.300;16.352;2022-09-27T10:22:57;3.83;;;1.30;;
43311;SDS011;30041;48.300;16.352;2022-09-27T10:25:44;1.98;;;1.02;;
43311;SDS011;30041;48.300;16.352;2022-09-27T10:28:31;2.53;;;1.13;;
43311;SDS011;30041;48.300;16.352;2022-09-27T10:31:00;3.13;;;1.10;;
43311;SDS011;30041;48.300;16.352;2022-09-27T10:33:30;18.92;;;1.67;;
43311;SDS011;30041;48.300;16.352;2022-09-27T10:35:57;8.00;;;1.40;;
43311;SDS011;30041;48.300;16.352;2022-09-27T10:38:31;3.67;;;1.02;;
43311;SDS011;30041;48.300;16.352;2022-09-27T10:41:14;4.50;;;1.17;;
43311;SDS011;30041;48.300;16.352;2022-09-27T10:43:41;2.47;;;1.10;;
43311;SDS011;30041;48.300;16.352;2022-09-27T10:49:06;2.38;;;1.00;;
43311;SDS011;30041;48.300;16.352;2022-09-27T10:51:33;4.88;;;1.30;;
43311;SDS011;30041;48.300;16.352;2022-09-27T10:54:00;2.05;;;1.10;;
43311;SDS011;30041;48.300;16.352;2022-09-27T10:56:27;3.63;;;1.02;;
43311;SDS011;30041;48.300;16.352;2022-09-27T10:58:55;2.72;;;1.00;;
43311;SDS011;30041;48.300;16.352;2022-09-27T11:01:22;3.72;;;1.13;;
43311;SDS011;30041;48.300;16.352;2022-09-27T11:03:52;2.92;;;1.10;;
43311;SDS011;30041;48.300;16.352;2022-09-27T11:08:49;3.60;;;1.10;;
43311;SDS011;30041;48.300;16.352;2022-09-27T11:11:17;3.65;;;1.10;;
43311;SDS011;30041;48.300;16.352;2022-09-27T11:14:03;2.38;;;1.30;;
43311;SDS011;30041;48.300;16.352;2022-09-27T11:19:37;5.10;;;1.40;;
43311;SDS011;30041;48.300;16.352;2022-09-27T11:27:37;5.95;;;1.00;;
43311;SDS011;30041;48.300;16.352;2022-09-27T11:30:24;2.42;;;1.10;;
43311;SDS011;30041;48.300;16.352;2022-09-27T11:38:35;2.40;;;0.80;;
43311;SDS011;30041;48.300;16.352;2022-09-27T11:41:19;3.90;;;1.00;;
43311;SDS011;30041;48.300;16.352;2022-09-27T11:49:07;5.55;;;1.17;;
43311;SDS011;30041;48.300;16.352;2022-09-27T11:51:40;7.28;;;1.38;;
43311;SDS011;30041;48.300;16.352;2022-09-27T11:57:41;4.63;;;1.20;;
43311;SDS011;30041;48.300;16.352;2022-09-27T12:00:18;6.65;;;1.30;;
43311;SDS011;30041;48.300;16.352;2022-09-27T12:03:03;5.55;;;1.15;;
43311;SDS011;30041;48.300;16.352;2022-09-27T12:06:57;8.00;;;1.27;;
43311;SDS011;30041;48.300;16.352;2022-09-27T12:11:45;8.98;;;1.42;;
43311;SDS011;30041;48.300;16.352;2022-09-27T12:17:05;2.28;;;0.90;;
43311;SDS011;30041;48.300;16.352;2022-09-27T12:19:40;27.45;;;2.70;;
43311;SDS011;30041;48.300;16.352;2022-09-27T12:22:11;5.55;;;1.27;;
43311;SDS011;30041;48.300;16.352;2022-09-27T12:24:41;7.82;;;1.25;;
43311;SDS011;30041;48.300;16.352;2022-09-27T12:27:09;5.57;;;1.25;;
43311;SDS011;30041;48.300;16.352;2022-09-27T12:29:41;5.80;;;1.55;;
43311;SDS011;30041;48.300;16.352;2022-09-27T12:35:00;4.18;;;1.15;;
43311;SDS011;30041;48.300;16.352;2022-09-27T12:40:28;6.05;;;1.10;;
43311;SDS011;30041;48.300;16.352;2022-09-27T12:45:41;4.38;;;1.40;;
43311;SDS011;30041;48.300;16.352;2022-09-27T13:04:45;2.40;;;0.88;;
43311;SDS011;30041;48.300;16.352;2022-09-27T13:07:41;3.92;;;1.10;;
43311;SDS011;30041;48.300;16.352;2022-09-27T13:13:09;4.07;;;1.00;;
43311;SDS011;30041;48.300;16.352;2022-09-27T13:15:36;5.50;;;1.30;;
43311;SDS011;30041;48.300;16.352;2022-09-27T13:18:03;2.00;;;0.98;;
43311;SDS011;30041;48.300;16.352;2022-09-27T13:22:57;7.82;;;1.00;;
43311;SDS011;30041;48.300;16.352;2022-09-27T13:30:52;2.75;;;1.02;;
43311;SDS011;30041;48.300;16.352;2022-09-27T13:33:20;3.78;;;1.00;;
43311;SDS011;30041;48.300;16.352;2022-09-27T13:44:13;2.78;;;0.90;;
43311;SDS011;30041;48.300;16.352;2022-09-27T13:47:02;3.00;;;0.88;;
43311;SDS011;30041;48.300;16.352;2022-09-27T13:52:22;3.15;;;0.80;;
43311;SDS011;30041;48.300;16.352;2022-09-27T14:00:20;4.15;;;0.98;;
43311;SDS011;30041;48.300;16.352;2022-09-27T14:02:56;1.98;;;0.70;;
43311;SDS011;30041;48.300;16.352;2022-09-27T14:05:33;3.63;;;0.90;;
43311;SDS011;30041;48.300;16.352;2022-09-27T14:08:03;2.17;;;0.82;;
43311;SDS011;30041;48.300;16.352;2022-09-27T14:10:31;4.57;;;0.80;;
43311;SDS011;30041;48.300;16.352;2022-09-27T14:12:59;2.88;;;0.77;;
43311;SDS011;30041;48.300;16.352;2022-09-27T14:15:27;3.25;;;0.95;;
43311;SDS011;30041;48.300;16.352;2022-09-27T14:17:55;5.93;;;1.02;;
43311;SDS011;30041;48.300;16.352;2022-09-27T14:20:35;3.33;;;1.10;;
43311;SDS011;30041;48.300;16.352;2022-09-27T14:23:30;6.38;;;1.50;;
43311;SDS011;30041;48.300;16.352;2022-09-27T14:25:54;5.07;;;1.47;;
43311;SDS011;30041;48.300;16.352;2022-09-27T14:28:24;5.43;;;1.65;;
43311;SDS011;30041;48.300;16.352;2022-09-27T14:33:49;5.93;;;1.58;;
43311;SDS011;30041;48.300;16.352;2022-09-27T14:36:29;4.95;;;1.80;;
43311;SDS011;30041;48.300;16.352;2022-09-27T14:38:56;4.95;;;1.60;;
43311;SDS011;30041;48.300;16.352;2022-09-27T14:41:21;5.10;;;1.60;;
43311;SDS011;30041;48.300;16.352;2022-09-27T14:43:47;8.82;;;1.83;;
43311;SDS011;30041;48.300;16.352;2022-09-27T14:46:26;11.20;;;1.70;;
43311;SDS011;30041;48.300;16.352;2022-09-27T14:48:54;5.70;;;1.55;;
43311;SDS011;30041;48.300;16.352;2022-09-27T14:51:21;13.18;;;2.10;;
43311;SDS011;30041;48.300;16.352;2022-09-27T14:53:52;3.20;;;1.20;;
43311;SDS011;30041;48.300;16.352;2022-09-27T14:56:21;4.93;;;1.50;;
43311;SDS011;30041;48.300;16.352;2022-09-27T15:01:39;3.95;;;1.35;;
43311;SDS011;30041;48.300;16.352;2022-09-27T15:06:40;3.03;;;1.00;;
43311;SDS011;30041;48.300;16.352;2022-09-27T15:09:06;4.70;;;1.17;;
43311;SDS011;30041;48.300;16.352;2022-09-27T15:11:35;3.28;;;1.30;;
43311;SDS011;30041;48.300;16.352;2022-09-27T15:14:03;6.75;;;1.33;;
43311;SDS011;30041;48.300;16.352;2022-09-27T15:16:29;3.58;;;1.48;;
43311;SDS011;30041;48.300;16.352;2022-09-27T15:19:28;2.03;;;0.98;;
43311;SDS011;30041;48.300;16.352;2022-09-27T15:21:46;3.58;;;1.20;;
43311;SDS011;30041;48.300;16.352;2022-09-27T15:27:04;2.45;;;1.05;;
43311;SDS011;30041;48.300;16.352;2022-09-27T15:29:37;2.75;;;1.10;;
43311;SDS011;30041;48.300;16.352;2022-09-27T15:32:03;2.72;;;0.90;;
43311;SDS011;30041;48.300;16.352;2022-09-27T15:34:31;3.42;;;1.13;;
43311;SDS011;30041;48.300;16.352;2022-09-27T15:37:01;3.72;;;1.13;;
43311;SDS011;30041;48.300;16.352;2022-09-27T15:39:32;3.38;;;1.05;;
43311;SDS011;30041;48.300;16.352;2022-09-27T15:44:42;5.82;;;1.38;;
43311;SDS011;30041;48.300;16.352;2022-09-27T15:49:57;4.38;;;1.30;;
43311;SDS011;30041;48.300;16.352;2022-09-27T15:52:42;4.70;;;1.30;;
43311;SDS011;30041;48.300;16.352;2022-09-27T15:55:13;4.90;;;1.85;;
43311;SDS011;30041;48.300;16.352;2022-09-27T15:57:40;4.00;;;1.30;;
43311;SDS011;30041;48.300;16.352;2022-09-27T16:00:09;4.15;;;1.55;;
43311;SDS011;30041;48.300;16.352;2022-09-27T16:02:37;4.28;;;1.45;;
43311;SDS011;30041;48.300;16.352;2022-09-27T16:05:03;4.75;;;1.50;;
43311;SDS011;30041;48.300;16.352;2022-09-27T16:07:28;6.03;;;1.80;;
43311;SDS011;30041;48.300;16.352;2022-09-27T16:09:54;3.22;;;1.25;;
43311;SDS011;30041;48.300;16.352;2022-09-27T16:12:19;8.57;;;1.50;;
43311;SDS011;30041;48.300;16.352;2022-09-27T16:14:45;3.70;;;1.58;;
43311;SDS011;30041;48.300;16.352;2022-09-27T16:17:10;4.32;;;1.42;;
43311;SDS011;30041;48.300;16.352;2022-09-27T16:19:36;6.63;;;1.50;;
43311;SDS011;30041;48.300;16.352;2022-09-27T16:22:02;6.70;;;1.67;;
43311;SDS011;30041;48.300;16.352;2022-09-27T16:24:27;4.00;;;1.55;;
43311;SDS011;30041;48.300;16.352;2022-09-27T16:26:53;3.45;;;1.50;;
43311;SDS011;30041;48.300;16.352;2022-09-27T16:29:19;5.53;;;1.60;;
43311;SDS011;30041;48.300;16.352;2022-09-27T16:31:45;5.00;;;1.58;;
43311;SDS011;30041;48.300;16.352;2022-09-27T16:34:11;4.45;;;1.70;;
43311;SDS011;30041;48.300;16.352;2022-09-27T16:36:37;5.00;;;1.83;;
43311;SDS011;30041;48.300;16.352;2022-09-27T16:39:04;5.05;;;1.98;;
43311;SDS011;30041;48.300;16.352;2022-09-27T16:41:31;4.85;;;2.00;;
43311;SDS011;30041;48.300;16.352;2022-09-27T16:43:56;6.13;;;1.92;;
43311;SDS011;30041;48.300;16.352;2022-09-27T16:46:22;4.30;;;1.58;;
43311;SDS011;30041;48.300;16.352;2022-09-27T16:48:47;6.15;;;1.70;;
43311;SDS011;30041;48.300;16.352;2022-09-27T16:51:17;4.13;;;1.75;;
43311;SDS011;30041;48.300;16.352;2022-09-27T16:53:44;5.32;;;1.85;;
43311;SDS011;30041;48.300;16.352;2022-09-27T16:56:09;4.20;;;1.80;;
43311;SDS011;30041;48.300;16.352;2022-09-27T16:58:35;7.55;;;1.77;;
43311;SDS011;30041;48.300;16.352;2022-09-27T17:01:00;3.53;;;1.85;;
43311;SDS011;30041;48.300;16.352;2022-09-27T17:03:25;5.88;;;1.80;;
43311;SDS011;30041;48.300;16.352;2022-09-27T17:05:51;5.50;;;2.35;;
43311;SDS011;30041;48.300;16.352;2022-09-27T17:08:16;3.65;;;1.80;;
43311;SDS011;30041;48.300;16.352;2022-09-27T17:10:44;4.63;;;1.98;;
43311;SDS011;30041;48.300;16.352;2022-09-27T17:13:10;5.35;;;2.17;;
43311;SDS011;30041;48.300;16.352;2022-09-27T17:15:35;5.85;;;1.92;;
43311;SDS011;30041;48.300;16.352;2022-09-27T17:18:01;3.55;;;2.00;;